sensor_id;sensor_type;location;lat;lon;timestamp;temperature;humidity
47805;DHT22;33568;45.286;9.900;2023-09-18T00:02:21;25.90;95.40
47805;DHT22;33568;45.286;9.900;2023-09-18T00:04:47;25.90;95.40
47805;DHT22;33568;45.286;9.900;2023-09-18T00:07:14;26.00;95.40
47805;DHT22;33568;45.286;9.900;2023-09-18T00:09:40;26.00;95.20
47805;DHT22;33568;45.286;9.900;2023-09-18T00:12:06;26.00;95.30
47805;DHT22;33568;45.286;9.900;2023-09-18T00:14:33;26.10;95.20
47805;DHT22;33568;45.286;9.900;2023-09-18T00:16:59;26.20;95.10
47805;DHT22;33568;45.286;9.900;2023-09-18T00:19:26;26.20;95.10
47805;DHT22;33568;45.286;9.900;2023-09-18T00:21:52;26.20;95.20
47805;DHT22;33568;45.286;9.900;2023-09-18T00:24:37;26.20;95.00
47805;DHT22;33568;45.286;9.900;2023-09-18T00:29:49;26.10;95.20
47805;DHT22;33568;45.286;9.900;2023-09-18T00:32:33;26.00;95.30
47805;DHT22;33568;45.286;9.900;2023-09-18T00:35:00;25.90;95.50
47805;DHT22;33568;45.286;9.900;2023-09-18T00:37:44;25.90;95.50
47805;DHT22;33568;45.286;9.900;2023-09-18T00:40:11;25.80;95.60
47805;DHT22;33568;45.286;9.900;2023-09-18T00:42:37;25.90;95.60
47805;DHT22;33568;45.286;9.900;2023-09-18T00:45:03;25.90;95.90
47805;DHT22;33568;45.286;9.900;2023-09-18T00:47:30;25.80;95.60
47805;DHT22;33568;45.286;9.900;2023-09-18T00:50:14;25.70;95.70
47805;DHT22;33568;45.286;9.900;2023-09-18T00:53:00;25.70;95.80
47805;DHT22;33568;45.286;9.900;2023-09-18T00:55:27;25.60;96.00
47805;DHT22;33568;45.286;9.900;2023-09-18T00:57:55;25.60;96.10
47805;DHT22;33568;45.286;9.900;2023-09-18T01:00:21;25.50;96.10
47805;DHT22;33568;45.286;9.900;2023-09-18T01:03:07;25.50;96.10
47805;DHT22;33568;45.286;9.900;2023-09-18T01:05:53;25.50;96.30
47805;DHT22;33568;45.286;9.900;2023-09-18T01:08:20;25.50;96.30
47805;DHT22;33568;45.286;9.900;2023-09-18T01:10:48;25.40;96.40
47805;DHT22;33568;45.286;9.900;2023-09-18T01:13:37;25.40;96.50
47805;DHT22;33568;45.286;9.900;2023-09-18T01:16:10;25.40;96.60
47805;DHT22;33568;45.286;9.900;2023-09-18T01:18:37;25.30;96.70
47805;DHT22;33568;45.286;9.900;2023-09-18T01:21:03;25.30;96.60
47805;DHT22;33568;45.286;9.900;2023-09-18T01:23:30;25.30;96.70
47805;DHT22;33568;45.286;9.900;2023-09-18T01:29:00;25.30;96.80
47805;DHT22;33568;45.286;9.900;2023-09-18T01:31:26;25.30;96.80
47805;DHT22;33568;45.286;9.900;2023-09-18T01:33:52;25.30;96.80
47805;DHT22;33568;45.286;9.900;2023-09-18T01:36:38;25.30;97.10
47805;DHT22;33568;45.286;9.900;2023-09-18T01:39:04;25.30;97.00
47805;DHT22;33568;45.286;9.900;2023-09-18T01:41:31;25.30;96.90
47805;DHT22;33568;45.286;9.900;2023-09-18T01:43:57;25.30;96.90
47805;DHT22;33568;45.286;9.900;2023-09-18T01:46:23;25.30;96.90
47805;DHT22;33568;45.286;9.900;2023-09-18T01:48:50;25.30;97.00
47805;DHT22;33568;45.286;9.900;2023-09-18T01:51:16;25.30;96.80
47805;DHT22;33568;45.286;9.900;2023-09-18T01:53:42;25.30;96.80
47805;DHT22;33568;45.286;9.900;2023-09-18T01:56:08;25.30;96.80
47805;DHT22;33568;45.286;9.900;2023-09-18T01:58:35;25.30;96.90
47805;DHT22;33568;45.286;9.900;2023-09-18T02:01:38;25.30;96.80
47805;DHT22;33568;45.286;9.900;2023-09-18T02:04:05;25.40;96.80
47805;DHT22;33568;45.286;9.900;2023-09-18T02:09:16;25.30;96.70
47805;DHT22;33568;45.286;9.900;2023-09-18T02:11:44;25.40;96.80
47805;DHT22;33568;45.286;9.900;2023-09-18T02:14:10;25.30;96.70
47805;DHT22;33568;45.286;9.900;2023-09-18T02:16:38;25.30;96.70
47805;DHT22;33568;45.286;9.900;2023-09-18T02:19:10;25.30;96.90
47805;DHT22;33568;45.286;9.900;2023-09-18T02:21:37;25.20;96.90
47805;DHT22;33568;45.286;9.900;2023-09-18T02:24:05;25.10;97.10
47805;DHT22;33568;45.286;9.900;2023-09-18T02:26:31;25.10;97.20
47805;DHT22;33568;45.286;9.900;2023-09-18T02:29:16;25.00;97.40
47805;DHT22;33568;45.286;9.900;2023-09-18T02:31:42;25.00;97.60
47805;DHT22;33568;45.286;9.900;2023-09-18T02:34:08;25.00;97.60
47805;DHT22;33568;45.286;9.900;2023-09-18T02:36:35;25.00;97.60
47805;DHT22;33568;45.286;9.900;2023-09-18T02:39:02;25.10;97.50
47805;DHT22;33568;45.286;9.900;2023-09-18T02:41:28;25.10;97.40
47805;DHT22;33568;45.286;9.900;2023-09-18T02:43:54;25.10;97.40
47805;DHT22;33568;45.286;9.900;2023-09-18T02:46:21;25.10;97.50
47805;DHT22;33568;45.286;9.900;2023-09-18T02:48:47;25.10;97.40
47805;DHT22;33568;45.286;9.900;2023-09-18T02:51:14;25.10;97.30
47805;DHT22;33568;45.286;9.900;2023-09-18T02:53:58;25.00;97.40
47805;DHT22;33568;45.286;9.900;2023-09-18T02:56:43;25.00;97.40
47805;DHT22;33568;45.286;9.900;2023-09-18T02:59:09;25.00;97.40
47805;DHT22;33568;45.286;9.900;2023-09-18T03:01:36;24.90;97.40
47805;DHT22;33568;45.286;9.900;2023-09-18T03:04:21;25.00;97.80
47805;DHT22;33568;45.286;9.900;2023-09-18T03:07:06;24.90;97.60
47805;DHT22;33568;45.286;9.900;2023-09-18T03:10:10;24.80;97.60
47805;DHT22;33568;45.286;9.900;2023-09-18T03:12:57;24.80;97.90
47805;DHT22;33568;45.286;9.900;2023-09-18T03:15:24;24.80;97.90
47805;DHT22;33568;45.286;9.900;2023-09-18T03:20:56;24.90;97.80
47805;DHT22;33568;45.286;9.900;2023-09-18T03:23:22;24.80;97.90
47805;DHT22;33568;45.286;9.900;2023-09-18T03:25:48;24.80;97.90
47805;DHT22;33568;45.286;9.900;2023-09-18T03:28:14;24.90;98.10
47805;DHT22;33568;45.286;9.900;2023-09-18T03:30:41;24.80;98.10
47805;DHT22;33568;45.286;9.900;2023-09-18T03:33:26;24.90;98.10
47805;DHT22;33568;45.286;9.900;2023-09-18T03:36:10;24.80;98.10
47805;DHT22;33568;45.286;9.900;2023-09-18T03:38:38;24.80;98.20
47805;DHT22;33568;45.286;9.900;2023-09-18T03:43:50;24.80;98.30
47805;DHT22;33568;45.286;9.900;2023-09-18T03:46:17;24.80;98.30
47805;DHT22;33568;45.286;9.900;2023-09-18T03:49:02;24.90;98.30
47805;DHT22;33568;45.286;9.900;2023-09-18T03:52:05;24.80;98.30
47805;DHT22;33568;45.286;9.900;2023-09-18T03:54:32;24.80;98.30
47805;DHT22;33568;45.286;9.900;2023-09-18T03:56:58;24.90;98.20
47805;DHT22;33568;45.286;9.900;2023-09-18T04:02:09;24.80;98.30
47805;DHT22;33568;45.286;9.900;2023-09-18T04:04:35;24.80;98.20
47805;DHT22;33568;45.286;9.900;2023-09-18T04:07:05;24.80;98.20
47805;DHT22;33568;45.286;9.900;2023-09-18T04:09:31;24.80;98.20
47805;DHT22;33568;45.286;9.900;2023-09-18T04:11:57;24.80;98.20
47805;DHT22;33568;45.286;9.900;2023-09-18T04:14:24;24.70;98.60
47805;DHT22;33568;45.286;9.900;2023-09-18T04:16:50;24.70;98.50
47805;DHT22;33568;45.286;9.900;2023-09-18T04:19:16;24.60;98.60
47805;DHT22;33568;45.286;9.900;2023-09-18T04:21:43;24.60;98.70
47805;DHT22;33568;45.286;9.900;2023-09-18T04:24:09;24.60;98.70
47805;DHT22;33568;45.286;9.900;2023-09-18T04:26:54;24.50;98.80
47805;DHT22;33568;45.286;9.900;2023-09-18T04:29:20;24.50;99.00
47805;DHT22;33568;45.286;9.900;2023-09-18T04:31:49;24.50;99.00
47805;DHT22;33568;45.286;9.900;2023-09-18T04:34:15;24.60;99.00
47805;DHT22;33568;45.286;9.900;2023-09-18T04:36:42;24.50;98.90
47805;DHT22;33568;45.286;9.900;2023-09-18T04:39:29;24.60;99.10
47805;DHT22;33568;45.286;9.900;2023-09-18T04:41:56;24.50;98.90
47805;DHT22;33568;45.286;9.900;2023-09-18T04:44:22;24.50;99.00
47805;DHT22;33568;45.286;9.900;2023-09-18T04:46:50;24.50;99.00
47805;DHT22;33568;45.286;9.900;2023-09-18T04:49:34;24.60;99.00
47805;DHT22;33568;45.286;9.900;2023-09-18T04:52:00;24.50;99.00
47805;DHT22;33568;45.286;9.900;2023-09-18T04:54:27;24.50;99.00
47805;DHT22;33568;45.286;9.900;2023-09-18T04:56:53;24.50;98.90
47805;DHT22;33568;45.286;9.900;2023-09-18T04:59:20;24.50;99.00
47805;DHT22;33568;45.286;9.900;2023-09-18T05:01:46;24.50;99.00
47805;DHT22;33568;45.286;9.900;2023-09-18T05:07:53;24.60;98.90
47805;DHT22;33568;45.286;9.900;2023-09-18T05:13:23;24.60;99.00
47805;DHT22;33568;45.286;9.900;2023-09-18T05:15:49;24.60;98.90
47805;DHT22;33568;45.286;9.900;2023-09-18T05:18:15;24.50;99.00
47805;DHT22;33568;45.286;9.900;2023-09-18T05:21:00;24.50;99.10
47805;DHT22;33568;45.286;9.900;2023-09-18T05:23:27;24.60;99.10
47805;DHT22;33568;45.286;9.900;2023-09-18T05:25:53;24.60;99.00
47805;DHT22;33568;45.286;9.900;2023-09-18T05:35:04;24.60;99.30
47805;DHT22;33568;45.286;9.900;2023-09-18T05:37:32;24.60;99.00
47805;DHT22;33568;45.286;9.900;2023-09-18T05:39:58;24.70;99.10
47805;DHT22;33568;45.286;9.900;2023-09-18T05:42:25;24.80;99.00
47805;DHT22;33568;45.286;9.900;2023-09-18T05:44:51;24.80;99.00
47805;DHT22;33568;45.286;9.900;2023-09-18T05:50:27;24.80;98.90
47805;DHT22;33568;45.286;9.900;2023-09-18T05:52:56;24.90;98.80
47805;DHT22;33568;45.286;9.900;2023-09-18T05:55:26;24.90;98.90
47805;DHT22;33568;45.286;9.900;2023-09-18T05:57:53;25.00;99.00
47805;DHT22;33568;45.286;9.900;2023-09-18T06:00:38;24.90;99.10
47805;DHT22;33568;45.286;9.900;2023-09-18T06:03:23;24.80;99.30
47805;DHT22;33568;45.286;9.900;2023-09-18T06:06:07;24.80;99.50
47805;DHT22;33568;45.286;9.900;2023-09-18T06:08:34;24.70;99.60
47805;DHT22;33568;45.286;9.900;2023-09-18T06:11:00;24.70;99.60
47805;DHT22;33568;45.286;9.900;2023-09-18T06:13:45;24.60;99.90
47805;DHT22;33568;45.286;9.900;2023-09-18T06:18:57;24.50;99.90
47805;DHT22;33568;45.286;9.900;2023-09-18T06:21:26;24.40;99.90
47805;DHT22;33568;45.286;9.900;2023-09-18T06:23:52;24.30;99.90
47805;DHT22;33568;45.286;9.900;2023-09-18T06:26:18;24.20;99.90
47805;DHT22;33568;45.286;9.900;2023-09-18T06:28:44;24.00;99.90
47805;DHT22;33568;45.286;9.900;2023-09-18T06:31:11;23.90;99.90
47805;DHT22;33568;45.286;9.900;2023-09-18T06:33:37;23.90;99.90
47805;DHT22;33568;45.286;9.900;2023-09-18T06:36:22;23.90;99.90
47805;DHT22;33568;45.286;9.900;2023-09-18T06:38:48;24.00;99.90
47805;DHT22;33568;45.286;9.900;2023-09-18T06:41:14;24.20;99.90
47805;DHT22;33568;45.286;9.900;2023-09-18T06:43:40;24.30;99.90
47805;DHT22;33568;45.286;9.900;2023-09-18T06:46:25;24.50;99.90
47805;DHT22;33568;45.286;9.900;2023-09-18T06:48:51;24.80;99.90
47805;DHT22;33568;45.286;9.900;2023-09-18T06:51:56;24.90;99.90
47805;DHT22;33568;45.286;9.900;2023-09-18T06:54:22;25.10;99.90
47805;DHT22;33568;45.286;9.900;2023-09-18T06:56:48;25.20;99.90
47805;DHT22;33568;45.286;9.900;2023-09-18T06:59:14;25.30;99.80
47805;DHT22;33568;45.286;9.900;2023-09-18T07:01:41;25.20;99.90
47805;DHT22;33568;45.286;9.900;2023-09-18T07:04:08;25.10;99.90
47805;DHT22;33568;45.286;9.900;2023-09-18T07:06:34;25.10;99.90
47805;DHT22;33568;45.286;9.900;2023-09-18T07:09:19;25.00;99.90
47805;DHT22;33568;45.286;9.900;2023-09-18T07:12:07;25.00;99.90
47805;DHT22;33568;45.286;9.900;2023-09-18T07:14:35;24.90;99.90
47805;DHT22;33568;45.286;9.900;2023-09-18T07:17:20;24.80;99.90
47805;DHT22;33568;45.286;9.900;2023-09-18T07:19:46;24.70;99.90
47805;DHT22;33568;45.286;9.900;2023-09-18T07:22:12;24.70;99.90
47805;DHT22;33568;45.286;9.900;2023-09-18T07:24:39;24.70;99.90
47805;DHT22;33568;45.286;9.900;2023-09-18T07:30:30;24.60;99.90
47805;DHT22;33568;45.286;9.900;2023-09-18T07:32:56;24.60;99.90
47805;DHT22;33568;45.286;9.900;2023-09-18T07:35:24;24.60;99.90
47805;DHT22;33568;45.286;9.900;2023-09-18T07:37:50;24.60;99.90
47805;DHT22;33568;45.286;9.900;2023-09-18T07:40:16;24.70;99.90
47805;DHT22;33568;45.286;9.900;2023-09-18T07:42:43;24.80;99.90
47805;DHT22;33568;45.286;9.900;2023-09-18T07:45:10;25.00;99.90
47805;DHT22;33568;45.286;9.900;2023-09-18T07:47:54;25.20;99.90
47805;DHT22;33568;45.286;9.900;2023-09-18T07:50:21;25.30;99.90
47805;DHT22;33568;45.286;9.900;2023-09-18T07:52:47;25.40;99.90
47805;DHT22;33568;45.286;9.900;2023-09-18T07:55:13;25.50;99.90
47805;DHT22;33568;45.286;9.900;2023-09-18T07:57:58;25.70;99.90
47805;DHT22;33568;45.286;9.900;2023-09-18T08:00:25;25.70;99.90
47805;DHT22;33568;45.286;9.900;2023-09-18T08:02:52;25.70;99.90
47805;DHT22;33568;45.286;9.900;2023-09-18T08:05:22;25.70;99.90
47805;DHT22;33568;45.286;9.900;2023-09-18T08:08:06;25.80;99.90
47805;DHT22;33568;45.286;9.900;2023-09-18T08:10:36;25.70;99.90
47805;DHT22;33568;45.286;9.900;2023-09-18T08:15:47;25.70;99.90
47805;DHT22;33568;45.286;9.900;2023-09-18T08:21:16;26.10;99.90
47805;DHT22;33568;45.286;9.900;2023-09-18T08:24:01;26.20;99.90
47805;DHT22;33568;45.286;9.900;2023-09-18T08:26:28;26.40;99.90
47805;DHT22;33568;45.286;9.900;2023-09-18T08:29:13;26.50;99.90
47805;DHT22;33568;45.286;9.900;2023-09-18T08:31:39;26.70;99.70
47805;DHT22;33568;45.286;9.900;2023-09-18T08:34:23;26.80;99.10
47805;DHT22;33568;45.286;9.900;2023-09-18T08:36:50;26.60;99.20
47805;DHT22;33568;45.286;9.900;2023-09-18T08:39:16;26.80;99.60
47805;DHT22;33568;45.286;9.900;2023-09-18T08:41:42;26.90;99.10
47805;DHT22;33568;45.286;9.900;2023-09-18T08:44:09;27.00;98.70
47805;DHT22;33568;45.286;9.900;2023-09-18T08:46:36;26.90;98.60
47805;DHT22;33568;45.286;9.900;2023-09-18T08:49:02;26.70;99.00
47805;DHT22;33568;45.286;9.900;2023-09-18T08:51:29;26.60;99.10
47805;DHT22;33568;45.286;9.900;2023-09-18T08:56:42;26.40;99.30
47805;DHT22;33568;45.286;9.900;2023-09-18T08:59:09;26.40;99.30
47805;DHT22;33568;45.286;9.900;2023-09-18T09:01:37;26.20;99.40
47805;DHT22;33568;45.286;9.900;2023-09-18T09:06:48;26.10;99.70
47805;DHT22;33568;45.286;9.900;2023-09-18T09:09:15;26.00;99.70
47805;DHT22;33568;45.286;9.900;2023-09-18T09:12:00;25.90;99.90
47805;DHT22;33568;45.286;9.900;2023-09-18T09:14:26;25.90;99.90
47805;DHT22;33568;45.286;9.900;2023-09-18T09:17:18;25.90;99.90
47805;DHT22;33568;45.286;9.900;2023-09-18T09:20:13;25.90;99.90
47805;DHT22;33568;45.286;9.900;2023-09-18T09:25:44;25.60;99.90
47805;DHT22;33568;45.286;9.900;2023-09-18T09:28:10;25.40;99.90
47805;DHT22;33568;45.286;9.900;2023-09-18T09:30:38;25.30;99.90
47805;DHT22;33568;45.286;9.900;2023-09-18T09:33:05;25.30;99.90
47805;DHT22;33568;45.286;9.900;2023-09-18T09:35:34;25.30;99.90
47805;DHT22;33568;45.286;9.900;2023-09-18T09:38:10;25.20;99.90
47805;DHT22;33568;45.286;9.900;2023-09-18T09:40:41;25.30;99.90
47805;DHT22;33568;45.286;9.900;2023-09-18T09:43:09;25.50;99.90
47805;DHT22;33568;45.286;9.900;2023-09-18T09:45:58;25.60;99.90
47805;DHT22;33568;45.286;9.900;2023-09-18T09:48:25;25.70;99.90
47805;DHT22;33568;45.286;9.900;2023-09-18T09:51:17;26.00;99.90
47805;DHT22;33568;45.286;9.900;2023-09-18T09:56:51;26.50;99.90
47805;DHT22;33568;45.286;9.900;2023-09-18T09:59:20;26.80;99.90
47805;DHT22;33568;45.286;9.900;2023-09-18T10:01:47;27.00;99.90
47805;DHT22;33568;45.286;9.900;2023-09-18T10:04:34;27.40;99.70
47805;DHT22;33568;45.286;9.900;2023-09-18T10:07:07;27.60;99.00
47805;DHT22;33568;45.286;9.900;2023-09-18T10:09:35;27.70;98.80
47805;DHT22;33568;45.286;9.900;2023-09-18T10:12:05;27.90;98.50
47805;DHT22;33568;45.286;9.900;2023-09-18T10:14:54;28.00;98.10
47805;DHT22;33568;45.286;9.900;2023-09-18T10:17:22;28.00;97.70
47805;DHT22;33568;45.286;9.900;2023-09-18T10:20:08;28.00;98.10
47805;DHT22;33568;45.286;9.900;2023-09-18T10:26:39;28.30;97.40
47805;DHT22;33568;45.286;9.900;2023-09-18T10:29:07;28.70;97.30
47805;DHT22;33568;45.286;9.900;2023-09-18T10:31:53;28.90;96.60
47805;DHT22;33568;45.286;9.900;2023-09-18T10:34:22;29.20;96.20
47805;DHT22;33568;45.286;9.900;2023-09-18T10:36:54;29.30;95.80
47805;DHT22;33568;45.286;9.900;2023-09-18T10:39:39;29.60;95.50
47805;DHT22;33568;45.286;9.900;2023-09-18T10:42:08;29.80;95.10
47805;DHT22;33568;45.286;9.900;2023-09-18T10:44:35;30.00;94.80
47805;DHT22;33568;45.286;9.900;2023-09-18T10:47:04;29.80;94.50
47805;DHT22;33568;45.286;9.900;2023-09-18T10:49:49;29.80;94.50
47805;DHT22;33568;45.286;9.900;2023-09-18T10:52:42;29.90;94.20
47805;DHT22;33568;45.286;9.900;2023-09-18T10:55:27;29.90;94.40
47805;DHT22;33568;45.286;9.900;2023-09-18T10:57:56;29.70;94.30
47805;DHT22;33568;45.286;9.900;2023-09-18T11:01:00;29.60;94.50
47805;DHT22;33568;45.286;9.900;2023-09-18T11:03:27;29.50;94.40
47805;DHT22;33568;45.286;9.900;2023-09-18T11:06:12;29.40;94.20
47805;DHT22;33568;45.286;9.900;2023-09-18T11:11:31;29.50;94.10
47805;DHT22;33568;45.286;9.900;2023-09-18T11:13:59;29.50;94.20
47805;DHT22;33568;45.286;9.900;2023-09-18T11:17:03;29.60;93.80
47805;DHT22;33568;45.286;9.900;2023-09-18T11:19:48;29.90;93.70
47805;DHT22;33568;45.286;9.900;2023-09-18T11:22:15;30.10;93.60
47805;DHT22;33568;45.286;9.900;2023-09-18T11:24:41;30.30;93.40
47805;DHT22;33568;45.286;9.900;2023-09-18T11:30:14;30.40;92.00
47805;DHT22;33568;45.286;9.900;2023-09-18T11:35:53;30.50;92.70
47805;DHT22;33568;45.286;9.900;2023-09-18T11:38:19;30.60;92.10
47805;DHT22;33568;45.286;9.900;2023-09-18T11:46:48;30.80;91.80
47805;DHT22;33568;45.286;9.900;2023-09-18T11:49:38;30.90;92.20
47805;DHT22;33568;45.286;9.900;2023-09-18T11:52:08;30.90;91.90
47805;DHT22;33568;45.286;9.900;2023-09-18T11:54:35;30.80;91.90
47805;DHT22;33568;45.286;9.900;2023-09-18T11:57:20;30.50;91.90
47805;DHT22;33568;45.286;9.900;2023-09-18T11:59:47;30.20;92.20
47805;DHT22;33568;45.286;9.900;2023-09-18T12:04:54;29.90;92.00
47805;DHT22;33568;45.286;9.900;2023-09-18T12:07:21;29.80;92.50
47805;DHT22;33568;45.286;9.900;2023-09-18T12:09:47;29.70;92.60
47805;DHT22;33568;45.286;9.900;2023-09-18T12:12:32;29.50;92.70
47805;DHT22;33568;45.286;9.900;2023-09-18T12:14:59;29.20;92.80
47805;DHT22;33568;45.286;9.900;2023-09-18T12:17:44;29.00;92.90
47805;DHT22;33568;45.286;9.900;2023-09-18T12:20:18;29.00;93.20
47805;DHT22;33568;45.286;9.900;2023-09-18T12:22:48;28.90;93.20
47805;DHT22;33568;45.286;9.900;2023-09-18T12:25:15;28.80;93.30
47805;DHT22;33568;45.286;9.900;2023-09-18T12:28:02;28.70;93.40
47805;DHT22;33568;45.286;9.900;2023-09-18T12:30:30;28.70;93.40
47805;DHT22;33568;45.286;9.900;2023-09-18T12:33:17;28.60;93.50
47805;DHT22;33568;45.286;9.900;2023-09-18T12:35:43;28.60;93.60
47805;DHT22;33568;45.286;9.900;2023-09-18T12:38:15;28.60;93.70
47805;DHT22;33568;45.286;9.900;2023-09-18T12:41:01;28.60;93.60
47805;DHT22;33568;45.286;9.900;2023-09-18T12:47:35;28.40;93.80
47805;DHT22;33568;45.286;9.900;2023-09-18T12:50:03;28.30;94.00
47805;DHT22;33568;45.286;9.900;2023-09-18T12:53:10;28.20;94.10
47805;DHT22;33568;45.286;9.900;2023-09-18T12:55:38;28.20;94.30
47805;DHT22;33568;45.286;9.900;2023-09-18T12:58:05;28.10;94.50
47805;DHT22;33568;45.286;9.900;2023-09-18T13:00:34;28.00;94.80
47805;DHT22;33568;45.286;9.900;2023-09-18T13:03:02;28.00;95.30
47805;DHT22;33568;45.286;9.900;2023-09-18T13:05:31;27.80;95.60
47805;DHT22;33568;45.286;9.900;2023-09-18T13:08:22;27.80;95.90
47805;DHT22;33568;45.286;9.900;2023-09-18T13:11:08;27.70;96.10
47805;DHT22;33568;45.286;9.900;2023-09-18T13:16:41;27.50;96.60
47805;DHT22;33568;45.286;9.900;2023-09-18T13:19:10;27.50;96.80
47805;DHT22;33568;45.286;9.900;2023-09-18T13:21:36;27.40;96.80
47805;DHT22;33568;45.286;9.900;2023-09-18T13:24:07;27.40;96.90
47805;DHT22;33568;45.286;9.900;2023-09-18T13:26:34;27.40;96.90
47805;DHT22;33568;45.286;9.900;2023-09-18T13:29:00;27.40;96.90
47805;DHT22;33568;45.286;9.900;2023-09-18T13:31:26;27.30;97.10
47805;DHT22;33568;45.286;9.900;2023-09-18T13:33:55;27.30;97.40
47805;DHT22;33568;45.286;9.900;2023-09-18T13:39:07;27.10;98.00
47805;DHT22;33568;45.286;9.900;2023-09-18T13:41:34;27.00;98.40
47805;DHT22;33568;45.286;9.900;2023-09-18T13:44:01;26.90;98.50
47805;DHT22;33568;45.286;9.900;2023-09-18T13:46:46;26.80;98.70
47805;DHT22;33568;45.286;9.900;2023-09-18T13:49:13;26.70;98.90
47805;DHT22;33568;45.286;9.900;2023-09-18T13:51:39;26.70;99.00
47805;DHT22;33568;45.286;9.900;2023-09-18T13:57:09;26.80;99.10
47805;DHT22;33568;45.286;9.900;2023-09-18T13:59:36;26.70;99.20
47805;DHT22;33568;45.286;9.900;2023-09-18T14:02:04;26.70;99.20
47805;DHT22;33568;45.286;9.900;2023-09-18T14:04:50;26.70;99.30
47805;DHT22;33568;45.286;9.900;2023-09-18T14:07:16;26.80;99.50
47805;DHT22;33568;45.286;9.900;2023-09-18T14:10:02;26.90;99.40
47805;DHT22;33568;45.286;9.900;2023-09-18T14:15:33;27.10;99.20
47805;DHT22;33568;45.286;9.900;2023-09-18T14:20:45;27.30;99.20
47805;DHT22;33568;45.286;9.900;2023-09-18T14:23:30;27.50;99.00
47805;DHT22;33568;45.286;9.900;2023-09-18T14:26:34;27.60;98.80
47805;DHT22;33568;45.286;9.900;2023-09-18T14:29:10;27.50;98.90
47805;DHT22;33568;45.286;9.900;2023-09-18T14:31:37;27.40;98.80
47805;DHT22;33568;45.286;9.900;2023-09-18T14:34:22;27.40;98.70
47805;DHT22;33568;45.286;9.900;2023-09-18T14:36:48;27.40;98.50
47805;DHT22;33568;45.286;9.900;2023-09-18T14:42:00;27.40;98.70
47805;DHT22;33568;45.286;9.900;2023-09-18T14:44:45;27.40;98.80
47805;DHT22;33568;45.286;9.900;2023-09-18T14:47:12;27.50;98.70
47805;DHT22;33568;45.286;9.900;2023-09-18T14:49:38;27.70;98.40
47805;DHT22;33568;45.286;9.900;2023-09-18T14:52:42;27.90;98.10
47805;DHT22;33568;45.286;9.900;2023-09-18T14:57:54;28.00;97.60
47805;DHT22;33568;45.286;9.900;2023-09-18T15:00:20;28.00;97.40
47805;DHT22;33568;45.286;9.900;2023-09-18T15:03:05;28.00;97.20
47805;DHT22;33568;45.286;9.900;2023-09-18T15:08:18;28.10;96.80
47805;DHT22;33568;45.286;9.900;2023-09-18T15:10:46;28.10;96.50
47805;DHT22;33568;45.286;9.900;2023-09-18T15:13:30;28.10;96.10
47805;DHT22;33568;45.286;9.900;2023-09-18T15:16:16;28.10;96.00
47805;DHT22;33568;45.286;9.900;2023-09-18T15:18:43;28.00;95.80
47805;DHT22;33568;45.286;9.900;2023-09-18T15:21:29;28.00;95.90
47805;DHT22;33568;45.286;9.900;2023-09-18T15:23:55;27.90;95.60
47805;DHT22;33568;45.286;9.900;2023-09-18T15:26:23;27.90;95.90
47805;DHT22;33568;45.286;9.900;2023-09-18T15:31:34;28.00;95.80
47805;DHT22;33568;45.286;9.900;2023-09-18T15:34:19;28.00;95.80
47805;DHT22;33568;45.286;9.900;2023-09-18T15:36:45;28.00;95.80
47805;DHT22;33568;45.286;9.900;2023-09-18T15:39:31;28.10;95.90
47805;DHT22;33568;45.286;9.900;2023-09-18T15:41:59;28.10;95.50
47805;DHT22;33568;45.286;9.900;2023-09-18T15:44:44;28.20;95.70
47805;DHT22;33568;45.286;9.900;2023-09-18T15:47:10;28.20;95.30
47805;DHT22;33568;45.286;9.900;2023-09-18T15:50:14;28.20;95.70
47805;DHT22;33568;45.286;9.900;2023-09-18T15:52:59;28.20;95.50
47805;DHT22;33568;45.286;9.900;2023-09-18T15:55:25;28.20;94.90
47805;DHT22;33568;45.286;9.900;2023-09-18T15:57:52;28.30;95.20
47805;DHT22;33568;45.286;9.900;2023-09-18T16:00:19;28.30;95.20
47805;DHT22;33568;45.286;9.900;2023-09-18T16:03:04;28.20;95.30
47805;DHT22;33568;45.286;9.900;2023-09-18T16:05:31;28.10;94.90
47805;DHT22;33568;45.286;9.900;2023-09-18T16:08:15;28.10;93.80
47805;DHT22;33568;45.286;9.900;2023-09-18T16:13:45;28.40;89.40
47805;DHT22;33568;45.286;9.900;2023-09-18T16:16:30;28.50;84.30
47805;DHT22;33568;45.286;9.900;2023-09-18T16:18:56;28.50;81.90
47805;DHT22;33568;45.286;9.900;2023-09-18T16:21:23;28.50;79.90
47805;DHT22;33568;45.286;9.900;2023-09-18T16:24:09;28.50;77.70
47805;DHT22;33568;45.286;9.900;2023-09-18T16:26:36;28.50;77.00
47805;DHT22;33568;45.286;9.900;2023-09-18T16:32:07;28.40;74.30
47805;DHT22;33568;45.286;9.900;2023-09-18T16:34:34;28.40;76.70
47805;DHT22;33568;45.286;9.900;2023-09-18T16:42:50;28.20;77.70
47805;DHT22;33568;45.286;9.900;2023-09-18T16:45:16;28.10;78.10
47805;DHT22;33568;45.286;9.900;2023-09-18T16:50:46;28.00;78.40
47805;DHT22;33568;45.286;9.900;2023-09-18T16:53:13;28.00;78.50
47805;DHT22;33568;45.286;9.900;2023-09-18T16:55:58;28.00;78.10
47805;DHT22;33568;45.286;9.900;2023-09-18T17:01:31;28.10;77.60
47805;DHT22;33568;45.286;9.900;2023-09-18T17:03:58;28.10;77.80
47805;DHT22;33568;45.286;9.900;2023-09-18T17:06:25;28.10;77.80
47805;DHT22;33568;45.286;9.900;2023-09-18T17:09:12;28.10;78.40
47805;DHT22;33568;45.286;9.900;2023-09-18T17:11:39;28.10;76.90
47805;DHT22;33568;45.286;9.900;2023-09-18T17:14:06;28.10;78.40
47805;DHT22;33568;45.286;9.900;2023-09-18T17:16:32;28.20;78.50
47805;DHT22;33568;45.286;9.900;2023-09-18T17:19:17;28.20;78.20
47805;DHT22;33568;45.286;9.900;2023-09-18T17:21:44;28.30;78.40
47805;DHT22;33568;45.286;9.900;2023-09-18T17:24:10;28.30;77.90
47805;DHT22;33568;45.286;9.900;2023-09-18T17:26:56;28.20;78.10
47805;DHT22;33568;45.286;9.900;2023-09-18T17:29:22;28.30;78.00
47805;DHT22;33568;45.286;9.900;2023-09-18T17:31:48;28.30;77.70
47805;DHT22;33568;45.286;9.900;2023-09-18T17:34:15;28.20;77.80
47805;DHT22;33568;45.286;9.900;2023-09-18T17:36:41;28.20;78.30
47805;DHT22;33568;45.286;9.900;2023-09-18T17:39:27;28.20;78.40
47805;DHT22;33568;45.286;9.900;2023-09-18T17:42:30;28.20;79.10
47805;DHT22;33568;45.286;9.900;2023-09-18T17:45:19;28.20;77.60
47805;DHT22;33568;45.286;9.900;2023-09-18T17:48:04;28.20;77.70
47805;DHT22;33568;45.286;9.900;2023-09-18T17:50:49;28.20;80.40
47805;DHT22;33568;45.286;9.900;2023-09-18T17:53:53;28.20;79.40
47805;DHT22;33568;45.286;9.900;2023-09-18T17:56:20;28.10;78.20
47805;DHT22;33568;45.286;9.900;2023-09-18T17:59:05;28.10;79.80
47805;DHT22;33568;45.286;9.900;2023-09-18T18:01:34;28.10;79.80
47805;DHT22;33568;45.286;9.900;2023-09-18T18:04:02;28.10;79.90
47805;DHT22;33568;45.286;9.900;2023-09-18T18:06:28;28.00;80.10
47805;DHT22;33568;45.286;9.900;2023-09-18T18:09:14;28.00;80.80
47805;DHT22;33568;45.286;9.900;2023-09-18T18:11:40;28.00;80.10